Nimbus Weather Services

Informe meteorológico para Carrasco, Uruguay. El informe se hizo hace 47 minutos, a las 15:00 UTC. El viento soplaba a una velocidad de 5.1 m/s (11.5 millas por hora) del norte (010°). La temperatura era 16 °C (61 °F), con un punto de rocío de 8 °C (46 °F). La presión atmosférica era 1025 hPa (30.27 inHg). Había una humedad relativa del 59.0%. Cielo: nubosidad discontinua a una altitud de 914 metros (3000 pies). En aquel momento la visibilidad global era mayor de 10 kilómetros (6.2 millas).

La clave METAR es: SUMU 111500Z 01010KT 9999 BKN030 16/08 Q1025 NOSIG

Consulta realizada el Jueves 11 de Agosto de 2022 12:46. Tiempo usado para generar esta pagina:13,668 ms.